Currently 59°F in Murrieta, California, USA
59°F
61°F / 50°F
calm
0.25"
Sunday, May 19, 2019 5:53 PM PDT

Murrieta, California Weather Summary
Last 36 Hours

Temperature Winds Hourly Humidity Dewpoint
Time Report Norm Report Norm Max Gusts Precip. Rpt. Norm Rpt. Norm Pressure
1Sun 05:53 PM  58.9°F  69°F  calm  10 mph  none  0.00"  75%  63%  51°F  56°F  29.89"
Sun 05:00 PM  61.4°F  72°F  5 mph W  11 mph  13 mph  0.00"  76%  58%  53°F  56°F  29.88"
2Sun 04:56 PM  61.5°F  72°F  5 mph W  11 mph  9 mph  ----  75%  57%  53°F  56°F  29.88"
Sun 04:00 PM  60.7°F  74°F  7 mph SW  11 mph  16 mph  0.00"  80%  54%  54°F  56°F  29.89"
Sun 03:00 PM  58.4°F  75°F  6 mph SW  11 mph  15 mph  0.00"  90%  53%  56°F  56°F  29.91"
Sun 02:00 PM  57.5°F  75°F  5 mph SW  10 mph  10 mph  0.00"  94%  53%  56°F  56°F  29.92"
Sun 01:00 PM  54.2°F  75°F  3 mph SW  8 mph  none  0.00"  96%  53%  53°F  56°F  29.93"
Sun 12:00 PM  53.9°F  73°F  calm  7 mph  8 mph  0.02"  96%  55%  53°F  56°F  29.93"
Sun 11:00 AM  53.5°F  71°F  3 mph S  5 mph  none  0.04"  96%  61%  52°F  56°F  29.94"
Sun 10:00 AM  52.5°F  67°F  calm  3 mph  none  0.06"  95%  68%  51°F  56°F  29.93"
Sun 09:00 AM  52.1°F  63°F  calm  3 mph  5 mph  0.06"  95%  78%  51°F  56°F  29.93"
Sun 08:00 AM  51.3°F  59°F  calm  2 mph  none  0.03"  95%  85%  50°F  55°F  29.92"
Sun 07:00 AM  50.5°F  56°F  calm  1 mph  9 mph  0.00"  96%  89%  49°F  53°F  29.91"
3Sun 06:26 AM  50.2°F  55°F  calm  1 mph  4 mph  ----  95%  91%  49°F  52°F  29.91"
Sun 06:00 AM  50.6°F  54°F  5 mph SW  1 mph  7 mph  0.01"  95%  91%  49°F  52°F  29.90"
Sun 05:00 AM  51.7°F  55°F  calm  1 mph  12 mph  0.00"  94%  90%  50°F  52°F  29.90"
Sun 04:00 AM  53.8°F  55°F  4 mph SW  1 mph  7 mph  0.02"  95%  89%  52°F  52°F  29.90"
Sun 03:00 AM  55.2°F  55°F  calm  1 mph  none  0.01"  95%  89%  54°F  52°F  29.91"
Sun 02:00 AM  55.8°F  56°F  calm  2 mph  15 mph  0.00"  90%  88%  53°F  52°F  29.92"
Sun 01:00 AM  55.7°F  57°F  calm  2 mph  19 mph  0.00"  88%  88%  52°F  53°F  29.94"
Sun 12:00 AM  55.8°F  57°F  calm  2 mph  none  0.00"  90%  87%  53°F  53°F  29.95"
Sat 11:00 PM  55.9°F  58°F  calm  3 mph  none  0.00"  89%  86%  53°F  54°F  29.96"
Sat 10:00 PM  56.5°F  59°F  calm  3 mph  16 mph  0.00"  87%  84%  53°F  54°F  29.97"
Sat 09:00 PM  57.4°F  60°F  8 mph SW  5 mph  15 mph  0.00"  84%  82%  52°F  54°F  29.94"
Sat 08:00 PM  58.6°F  63°F  calm  7 mph  18 mph  0.00"  82%  77%  53°F  55°F  29.94"
Sat 07:00 PM  61.3°F  66°F  6 mph W  8 mph  21 mph  0.00"  72%  70%  52°F  56°F  29.93"
Sat 06:00 PM  64.4°F  70°F  11 mph SW  10 mph  23 mph  0.00"  60%  62%  50°F  56°F  29.93"
Sat 05:00 PM  66.7°F  73°F  13 mph SW  10 mph  23 mph  0.00"  56%  57%  50°F  56°F  29.93"
Sat 04:00 PM  68.4°F  75°F  5 mph W  11 mph  22 mph  0.00"  53%  53%  50°F  56°F  29.94"
Sat 03:00 PM  70.0°F  76°F  1 mph N  10 mph  21 mph  0.00"  51%  51%  51°F  56°F  29.97"
Sat 02:00 PM  69.9°F  76°F  2 mph N  9 mph  15 mph  0.00"  56%  51%  53°F  56°F  29.98"
Sat 01:00 PM  69.9°F  75°F  calm  8 mph  16 mph  0.00"  54%  52%  52°F  56°F  29.99"
Sat 12:00 PM  68.0°F  74°F  calm  7 mph  15 mph  0.00"  57%  54%  52°F  56°F  29.99"
Sat 11:00 AM  65.2°F  71°F  calm  5 mph  14 mph  0.00"  62%  59%  52°F  56°F  29.99"
Sat 10:00 AM  64.2°F  68°F  calm  3 mph  8 mph  0.00"  62%  67%  50°F  56°F  29.99"
Sat 09:00 AM  61.0°F  64°F  calm  3 mph  5 mph  0.00"  65%  77%  49°F  56°F  29.99"
Sat 08:00 AM  55.6°F  60°F  calm  2 mph  7 mph  0.00"  79%  85%  49°F  55°F  29.98"
Sat 07:00 AM  49.7°F  56°F  calm  1 mph  3 mph  0.00"  86%  89%  45°F  53°F  29.97"
Sat 06:00 AM  44.6°F  54°F  calm  1 mph  5 mph  0.00"  89%  90%  42°F  51°F  29.97"

  1. Current weather data. No green row appears if the current weather data is also the high or low for the current day.
  2. High temperature for the current day.
  3. Low temperature for the current day.

The Murrieta weather pages are a service of WeatherCurrents. Murrieta, California is located in the Temecula Valley, in southwestern Riverside County, at the junctions of the Interstate 15 and 215 highways.
Copyright ©2019  WeatherCurrents. All rights reserved. - Submit questions and comments - Privacy Policy

This page automatically refreshes every 10 minutes.